createdAt,value
2018-09-15T00:00:05.930Z,101351.78
2018-09-15T00:00:24.930Z,101348.40
2018-09-15T00:00:42.057Z,101349.70
2018-09-15T00:00:57.651Z,101347.86
2018-09-15T00:01:09.422Z,101354.19
2018-09-15T00:01:21.230Z,101348.97
2018-09-15T00:01:33.007Z,101348.40
2018-09-15T00:01:44.789Z,101347.33
2018-09-15T00:01:56.553Z,101343.41
2018-09-15T00:02:08.311Z,101349.70
2018-09-15T00:02:20.071Z,101352.31
2018-09-15T00:02:31.820Z,101353.62
2018-09-15T00:02:43.600Z,101355.70
2018-09-15T00:02:55.371Z,101348.09
2018-09-15T00:03:07.126Z,101350.86
2018-09-15T00:03:18.908Z,101346.94
2018-09-15T00:03:30.676Z,101345.09
2018-09-15T00:03:42.447Z,101352.02
2018-09-15T00:03:54.246Z,101350.32
2018-09-15T00:04:05.996Z,101351.09
2018-09-15T00:04:17.764Z,101346.79
2018-09-15T00:04:29.529Z,101349.41
2018-09-15T00:04:41.289Z,101351.78
2018-09-15T00:04:53.048Z,101341.56
2018-09-15T00:05:04.814Z,101352.16
2018-09-15T00:05:16.695Z,101353.62
2018-09-15T00:05:28.450Z,101348.25
2018-09-15T00:05:40.205Z,101347.71
2018-09-15T00:05:51.983Z,101344.72
2018-09-15T00:06:03.739Z,101348.63
2018-09-15T00:06:15.511Z,101353.85
2018-09-15T00:06:27.272Z,101346.25
2018-09-15T00:06:39.044Z,101348.09
2018-09-15T00:06:50.904Z,101345.87
2018-09-15T00:07:02.656Z,101349.78
2018-09-15T00:07:14.425Z,101348.48
2018-09-15T00:07:26.188Z,101346.41
2018-09-15T00:07:38.042Z,101351.63
2018-09-15T00:07:50.321Z,101345.48
2018-09-15T00:08:02.098Z,101346.41
2018-09-15T00:08:13.975Z,101346.94
2018-09-15T00:08:25.823Z,101349.17
2018-09-15T00:08:37.572Z,101351.93
2018-09-15T00:08:49.332Z,101340.41
2018-09-15T00:09:01.121Z,101344.33
2018-09-15T00:09:12.893Z,101346.55
2018-09-15T00:09:24.666Z,101345.25
2018-09-15T00:09:36.428Z,101341.72
2018-09-15T00:09:48.199Z,101340.80
2018-09-15T00:09:59.961Z,101342.64
2018-09-15T00:10:11.773Z,101337.80
2018-09-15T00:10:23.548Z,101339.26
2018-09-15T00:10:35.334Z,101340.03
2018-09-15T00:10:47.352Z,101340.03
2018-09-15T00:10:59.102Z,101338.72
2018-09-15T00:11:10.839Z,101338.52
2018-09-15T00:11:22.610Z,101338.52
2018-09-15T00:11:34.379Z,101339.83
2018-09-15T00:11:46.151Z,101333.11
2018-09-15T00:11:57.904Z,101336.11
2018-09-15T00:12:09.648Z,101340.56
2018-09-15T00:12:21.449Z,101339.11
2018-09-15T00:12:33.203Z,101344.09
2018-09-15T00:12:44.960Z,101336.50
2018-09-15T00:12:56.781Z,101333.50
2018-09-15T00:13:08.554Z,101337.80
2018-09-15T00:13:21.169Z,101341.34
2018-09-15T00:13:32.936Z,101338.72
2018-09-15T00:13:44.700Z,101341.34
2018-09-15T00:13:56.462Z,101340.03
2018-09-15T00:14:08.251Z,101340.17
2018-09-15T00:14:20.006Z,101341.48
2018-09-15T00:14:31.779Z,101339.11
2018-09-15T00:14:43.547Z,101337.41
2018-09-15T00:14:55.304Z,101340.80
2018-09-15T00:15:07.556Z,101341.72
2018-09-15T00:15:19.321Z,101341.72
2018-09-15T00:15:31.222Z,101340.03
2018-09-15T00:15:43.004Z,101336.11
2018-09-15T00:15:54.766Z,101344.09
2018-09-15T00:16:06.524Z,101341.34
2018-09-15T00:16:18.280Z,101340.56
2018-09-15T00:16:30.082Z,101347.28
2018-09-15T00:16:41.832Z,101337.41
2018-09-15T00:16:53.583Z,101338.19
2018-09-15T00:17:05.348Z,101343.95
2018-09-15T00:17:17.115Z,101342.64
2018-09-15T00:17:28.880Z,101343.95
2018-09-15T00:17:42.294Z,101343.95
2018-09-15T00:17:54.775Z,101342.64
2018-09-15T00:18:09.555Z,101343.95
2018-09-15T00:18:21.313Z,101344.33
2018-09-15T00:18:33.090Z,101348.02
2018-09-15T00:18:44.838Z,101341.72
2018-09-15T00:18:56.595Z,101344.33
2018-09-15T00:19:08.346Z,101345.78
2018-09-15T00:19:20.109Z,101349.31
2018-09-15T00:19:31.882Z,101342.44
2018-09-15T00:19:44.566Z,101348.40
2018-09-15T00:19:56.345Z,101345.64
2018-09-15T00:20:08.120Z,101341.34
2018-09-15T00:20:19.894Z,101343.95
2018-09-15T00:20:31.646Z,101343.56
2018-09-15T00:20:43.400Z,101345.41
2018-09-15T00:20:55.158Z,101341.48
2018-09-15T00:21:06.923Z,101346.70
2018-09-15T00:21:18.691Z,101341.34
2018-09-15T00:21:30.463Z,101346.55
2018-09-15T00:21:42.223Z,101345.64
2018-09-15T00:21:53.986Z,101346.55
2018-09-15T00:22:05.738Z,101347.86
2018-09-15T00:22:17.503Z,101344.33
2018-09-15T00:22:29.287Z,101345.09
2018-09-15T00:22:41.044Z,101346.55
2018-09-15T00:22:52.838Z,101341.34
2018-09-15T00:23:04.609Z,101345.78
2018-09-15T00:23:16.462Z,101346.55
2018-09-15T00:23:28.243Z,101350.47
2018-09-15T00:23:39.997Z,101351.78
2018-09-15T00:23:51.776Z,101349.17
2018-09-15T00:24:03.554Z,101349.17
2018-09-15T00:24:15.312Z,101348.78
2018-09-15T00:24:27.087Z,101354.92
2018-09-15T00:24:38.849Z,101354.39
2018-09-15T00:24:50.612Z,101359.61
2018-09-15T00:25:02.417Z,101355.70
2018-09-15T00:25:14.183Z,101353.47
2018-09-15T00:25:25.943Z,101356.08
2018-09-15T00:25:37.952Z,101353.85
2018-09-15T00:25:49.703Z,101357.39
2018-09-15T00:26:01.458Z,101357.77
2018-09-15T00:26:13.211Z,101357.62
2018-09-15T00:26:24.997Z,101353.31
2018-09-15T00:26:36.760Z,101352.94
2018-09-15T00:26:48.556Z,101359.08
2018-09-15T00:27:00.313Z,101354.23
2018-09-15T00:27:12.065Z,101352.55
2018-09-15T00:27:24.119Z,101359.61
2018-09-15T00:27:35.864Z,101358.31
2018-09-15T00:27:47.622Z,101356.47
2018-09-15T00:27:59.396Z,101356.08
2018-09-15T00:28:11.849Z,101354.23
2018-09-15T00:28:23.632Z,101353.85
2018-09-15T00:28:35.412Z,101353.47
2018-09-15T00:28:47.176Z,101356.08
2018-09-15T00:28:58.937Z,101351.24
2018-09-15T00:29:10.700Z,101353.47
2018-09-15T00:29:22.464Z,101353.85
2018-09-15T00:29:34.234Z,101352.94
2018-09-15T00:29:45.998Z,101348.25
2018-09-15T00:29:57.742Z,101348.25
2018-09-15T00:30:09.513Z,101352.16
2018-09-15T00:30:21.295Z,101352.55
2018-09-15T00:30:33.131Z,101351.63
2018-09-15T00:30:44.913Z,101350.70
2018-09-15T00:30:56.685Z,101352.02
2018-09-15T00:31:08.437Z,101351.09
2018-09-15T00:31:20.206Z,101356.47
2018-09-15T00:31:31.976Z,101352.40
2018-09-15T00:32:02.277Z,101350.70
2018-09-15T00:32:14.040Z,101352.02
2018-09-15T00:32:26.003Z,101352.16
2018-09-15T00:32:37.745Z,101354.39
2018-09-15T00:32:49.507Z,101351.63
2018-09-15T00:33:01.267Z,101352.16
2018-09-15T00:33:13.026Z,101350.32
2018-09-15T00:33:24.821Z,101353.47
2018-09-15T00:33:36.588Z,101353.09
2018-09-15T00:33:48.350Z,101353.47
2018-09-15T00:34:00.095Z,101352.94
2018-09-15T00:34:11.843Z,101350.86
2018-09-15T00:34:23.627Z,101350.86
2018-09-15T00:34:35.387Z,101350.86
2018-09-15T00:34:47.164Z,101354.39
2018-09-15T00:34:58.926Z,101352.94
2018-09-15T00:35:10.698Z,101345.48
2018-09-15T00:35:22.568Z,101349.02
2018-09-15T00:35:34.334Z,101348.09
2018-09-15T00:35:46.092Z,101352.02
2018-09-15T00:35:57.857Z,101349.02
2018-09-15T00:36:09.665Z,101344.18
2018-09-15T00:36:21.421Z,101348.48
2018-09-15T00:36:33.184Z,101347.71
2018-09-15T00:36:44.951Z,101343.41
2018-09-15T00:36:56.716Z,101351.63
2018-09-15T00:37:08.467Z,101344.56
2018-09-15T00:37:20.222Z,101351.63
2018-09-15T00:37:31.976Z,101347.33
2018-09-15T00:37:43.738Z,101347.71
2018-09-15T00:37:55.483Z,101346.02
2018-09-15T00:38:07.236Z,101346.79
2018-09-15T00:38:18.994Z,101353.47
2018-09-15T00:38:30.774Z,101346.41
2018-09-15T00:38:42.542Z,101351.78
2018-09-15T00:38:54.342Z,101352.16
2018-09-15T00:39:06.089Z,101340.80
2018-09-15T00:39:17.855Z,101350.86
2018-09-15T00:39:29.598Z,101346.41
2018-09-15T00:39:41.372Z,101343.41
2018-09-15T00:39:53.130Z,101343.02
2018-09-15T00:40:04.911Z,101341.18
2018-09-15T00:40:16.684Z,101341.34
2018-09-15T00:40:28.521Z,101341.34
2018-09-15T00:40:40.288Z,101346.94
2018-09-15T00:40:52.440Z,101345.64
2018-09-15T00:41:04.221Z,101341.34
2018-09-15T00:41:15.977Z,101340.03
2018-09-15T00:41:27.729Z,101346.70
2018-09-15T00:41:39.561Z,101344.33
2018-09-15T00:41:51.370Z,101344.48
2018-09-15T00:42:03.103Z,101338.19
2018-09-15T00:42:14.850Z,101340.80
2018-09-15T00:42:26.629Z,101342.11
2018-09-15T00:42:38.390Z,101345.64
2018-09-15T00:42:50.152Z,101344.33
2018-09-15T00:43:01.915Z,101339.88
2018-09-15T00:43:13.677Z,101341.72
2018-09-15T00:43:25.443Z,101345.78
2018-09-15T00:43:37.231Z,101341.72
2018-09-15T00:43:49.007Z,101342.64
2018-09-15T00:44:00.775Z,101340.41
2018-09-15T00:44:12.518Z,101343.80
2018-09-15T00:44:24.283Z,101339.88
2018-09-15T00:44:36.055Z,101341.18
2018-09-15T00:44:47.812Z,101338.58
2018-09-15T00:44:59.588Z,101342.11
2018-09-15T00:45:11.347Z,101334.66
2018-09-15T00:45:23.101Z,101341.56
2018-09-15T00:45:34.852Z,101342.48
2018-09-15T00:45:46.631Z,101341.56
2018-09-15T00:45:58.399Z,101339.88
2018-09-15T00:46:10.166Z,101345.64
2018-09-15T00:46:21.921Z,101342.48
2018-09-15T00:46:33.678Z,101342.64
2018-09-15T00:46:45.430Z,101340.27
2018-09-15T00:46:57.334Z,101339.49
2018-09-15T00:47:09.101Z,101332.43
2018-09-15T00:47:20.851Z,101338.03
2018-09-15T00:47:32.606Z,101340.27
2018-09-15T00:47:44.367Z,101338.19
2018-09-15T00:47:56.116Z,101338.19
2018-09-15T00:48:07.866Z,101336.34
2018-09-15T00:48:19.629Z,101339.49
2018-09-15T00:48:31.378Z,101332.43
2018-09-15T00:48:43.147Z,101338.95
2018-09-15T00:48:54.912Z,101338.03
2018-09-15T00:49:06.679Z,101339.34
2018-09-15T00:49:18.435Z,101339.34
2018-09-15T00:49:30.194Z,101338.03
2018-09-15T00:49:42.798Z,101336.34
2018-09-15T00:49:54.604Z,101335.96
2018-09-15T00:50:06.401Z,101336.34
2018-09-15T00:50:18.163Z,101331.13
2018-09-15T00:50:29.932Z,101335.04
2018-09-15T00:50:41.686Z,101338.95
2018-09-15T00:50:53.601Z,101329.44
2018-09-15T00:51:06.051Z,101327.36
2018-09-15T00:51:17.818Z,101340.17
2018-09-15T00:51:29.574Z,101335.58
2018-09-15T00:51:41.351Z,101334.27
2018-09-15T00:51:53.102Z,101336.34
2018-09-15T00:52:04.880Z,101337.27
2018-09-15T00:52:16.630Z,101339.88
2018-09-15T00:52:28.396Z,101339.34
2018-09-15T00:52:40.193Z,101339.88
2018-09-15T00:52:51.946Z,101334.66
2018-09-15T00:53:03.699Z,101334.50
2018-09-15T00:53:15.464Z,101333.73
2018-09-15T00:53:27.228Z,101335.96
2018-09-15T00:53:38.983Z,101338.58
2018-09-15T00:53:50.767Z,101341.72
2018-09-15T00:54:02.520Z,101334.27
2018-09-15T00:54:14.318Z,101341.72
2018-09-15T00:54:26.068Z,101336.88
2018-09-15T00:54:37.814Z,101327.36
2018-09-15T00:54:49.572Z,101337.41
2018-09-15T00:55:01.586Z,101337.41
2018-09-15T00:55:13.350Z,101337.95
2018-09-15T00:55:25.099Z,101331.04
2018-09-15T00:55:36.875Z,101331.66
2018-09-15T00:55:48.637Z,101330.35
2018-09-15T00:56:00.400Z,101333.34
2018-09-15T00:56:12.200Z,101336.11
2018-09-15T00:56:23.960Z,101333.88
2018-09-15T00:56:35.702Z,101338.19
2018-09-15T00:56:47.468Z,101332.97
2018-09-15T00:56:59.223Z,101335.58
2018-09-15T00:57:10.981Z,101334.95
2018-09-15T00:57:22.754Z,101339.26
2018-09-15T00:57:34.534Z,101332.58
2018-09-15T00:57:46.330Z,101333.34
2018-09-15T00:57:58.085Z,101333.88
2018-09-15T00:58:09.842Z,101331.27
2018-09-15T00:58:21.607Z,101328.66
2018-09-15T00:58:33.372Z,101326.82
2018-09-15T00:58:45.115Z,101334.27
2018-09-15T00:58:56.886Z,101332.05
2018-09-15T00:59:08.660Z,101325.52
2018-09-15T00:59:20.407Z,101331.27
2018-09-15T00:59:32.175Z,101331.27
2018-09-15T00:59:43.926Z,101333.88
2018-09-15T00:59:55.686Z,101332.97
2018-09-15T01:00:07.457Z,101333.34
2018-09-15T01:00:20.314Z,101328.13
2018-09-15T01:00:32.070Z,101332.43
2018-09-15T01:00:43.845Z,101322.91
2018-09-15T01:00:55.589Z,101328.13
2018-09-15T01:01:07.602Z,101326.82
2018-09-15T01:01:19.388Z,101325.13
2018-09-15T01:01:33.285Z,101332.05
2018-09-15T01:01:45.049Z,101325.91
2018-09-15T01:01:56.800Z,101323.67
2018-09-15T01:02:08.552Z,101333.73
2018-09-15T01:02:20.327Z,101327.59
2018-09-15T01:02:32.101Z,101329.44
2018-09-15T01:02:43.850Z,101323.29
2018-09-15T01:02:55.605Z,101323.67
2018-09-15T01:03:07.371Z,101331.66
2018-09-15T01:03:19.138Z,101328.52
2018-09-15T01:03:30.907Z,101327.20
2018-09-15T01:03:42.646Z,101327.98
2018-09-15T01:03:54.423Z,101328.36
2018-09-15T01:04:06.194Z,101332.81
2018-09-15T01:04:17.940Z,101327.98
2018-09-15T01:04:29.693Z,101324.98
2018-09-15T01:04:41.441Z,101326.67
2018-09-15T01:04:53.196Z,101324.20
2018-09-15T01:05:05.234Z,101333.73
2018-09-15T01:05:17.033Z,101327.59
2018-09-15T01:05:28.797Z,101324.20
2018-09-15T01:05:40.557Z,101327.20
2018-09-15T01:05:52.319Z,101330.97
2018-09-15T01:06:04.059Z,101320.14
2018-09-15T01:06:15.834Z,101327.98
2018-09-15T01:06:27.606Z,101326.67
2018-09-15T01:06:39.360Z,101325.36
2018-09-15T01:06:51.368Z,101321.06
2018-09-15T01:07:03.129Z,101317.53
2018-09-15T01:07:14.894Z,101321.06
2018-09-15T01:07:26.655Z,101324.06
2018-09-15T01:07:38.390Z,101321.45
2018-09-15T01:07:50.147Z,101317.53
2018-09-15T01:08:01.903Z,101324.45
2018-09-15T01:08:13.686Z,101326.67
2018-09-15T01:08:25.458Z,101316.61
2018-09-15T01:08:37.210Z,101320.53
2018-09-15T01:08:48.965Z,101316.23
2018-09-15T01:09:00.738Z,101319.07
2018-09-15T01:09:12.537Z,101319.76
2018-09-15T01:09:24.293Z,101318.84
2018-09-15T01:09:36.052Z,101322.38
2018-09-15T01:09:47.822Z,101323.67
2018-09-15T01:09:59.586Z,101318.06
2018-09-15T01:10:11.360Z,101318.98
2018-09-15T01:10:23.112Z,101314.15
2018-09-15T01:10:34.883Z,101322.52
2018-09-15T01:10:46.640Z,101317.30
2018-09-15T01:10:58.373Z,101318.60
2018-09-15T01:11:10.199Z,101318.60
2018-09-15T01:11:21.945Z,101317.30
2018-09-15T01:11:33.703Z,101314.30
2018-09-15T01:11:45.470Z,101316.91
2018-09-15T01:11:57.232Z,101321.21
2018-09-15T01:12:09.015Z,101315.99
2018-09-15T01:12:20.788Z,101318.22
2018-09-15T01:12:32.551Z,101319.52
2018-09-15T01:12:44.296Z,101316.91
2018-09-15T01:12:56.051Z,101315.99
2018-09-15T01:13:07.802Z,101315.07
2018-09-15T01:13:19.547Z,101315.07
2018-09-15T01:13:31.307Z,101312.84
2018-09-15T01:13:43.082Z,101319.14
2018-09-15T01:13:55.104Z,101315.07
2018-09-15T01:14:06.905Z,101319.76
2018-09-15T01:14:18.837Z,101312.84
2018-09-15T01:14:30.457Z,101314.53
2018-09-15T01:14:42.180Z,101313.61
2018-09-15T01:14:53.930Z,101312.84
2018-09-15T01:15:05.679Z,101313.77
2018-09-15T01:15:17.437Z,101315.45
2018-09-15T01:15:29.225Z,101314.53
2018-09-15T01:15:40.992Z,101314.15
2018-09-15T01:15:52.771Z,101313.23
2018-09-15T01:16:04.549Z,101317.14
2018-09-15T01:16:16.316Z,101316.38
2018-09-15T01:16:28.083Z,101321.59
2018-09-15T01:16:39.839Z,101313.23
2018-09-15T01:16:51.614Z,101317.14
2018-09-15T01:17:03.362Z,101317.14
2018-09-15T01:17:15.120Z,101314.53
2018-09-15T01:17:26.892Z,101316.38
2018-09-15T01:17:38.656Z,101318.98
2018-09-15T01:17:50.415Z,101311.92
2018-09-15T01:18:02.177Z,101317.14
2018-09-15T01:18:13.929Z,101312.84
2018-09-15T01:18:25.704Z,101313.23
2018-09-15T01:18:37.457Z,101314.53
2018-09-15T01:18:49.219Z,101317.53
2018-09-15T01:19:00.976Z,101314.00
2018-09-15T01:19:12.755Z,101317.14
2018-09-15T01:19:24.531Z,101314.53
2018-09-15T01:19:36.302Z,101312.16
2018-09-15T01:19:48.073Z,101317.91
2018-09-15T01:19:59.879Z,101317.91
2018-09-15T01:20:11.656Z,101317.14
2018-09-15T01:20:23.483Z,101317.00
2018-09-15T01:20:35.242Z,101319.22
2018-09-15T01:20:47.000Z,101314.00
2018-09-15T01:20:58.756Z,101319.22
2018-09-15T01:21:10.505Z,101313.08
2018-09-15T01:21:22.283Z,101316.08
2018-09-15T01:21:34.124Z,101314.38
2018-09-15T01:21:45.868Z,101314.00
2018-09-15T01:21:57.658Z,101316.23
2018-09-15T01:22:09.412Z,101316.23
2018-09-15T01:22:21.166Z,101309.70
2018-09-15T01:22:32.939Z,101314.53
2018-09-15T01:22:44.723Z,101311.39
2018-09-15T01:22:56.466Z,101307.86
2018-09-15T01:23:08.219Z,101314.53
2018-09-15T01:23:19.990Z,101310.23
2018-09-15T01:23:31.739Z,101316.38
2018-09-15T01:23:43.515Z,101310.62
2018-09-15T01:23:55.283Z,101315.84
2018-09-15T01:24:07.038Z,101315.84
2018-09-15T01:24:18.803Z,101309.31
2018-09-15T01:24:30.572Z,101311.00
2018-09-15T01:24:42.351Z,101316.77
2018-09-15T01:24:54.113Z,101307.63
2018-09-15T01:25:05.871Z,101314.92
2018-09-15T01:25:17.612Z,101312.70
2018-09-15T01:25:29.353Z,101313.61
2018-09-15T01:25:41.109Z,101309.70
2018-09-15T01:25:53.118Z,101310.62
2018-09-15T01:26:04.926Z,101308.00
2018-09-15T01:26:16.761Z,101314.53
2018-09-15T01:26:28.521Z,101308.39
2018-09-15T01:26:40.277Z,101305.25
2018-09-15T01:26:52.184Z,101309.70
2018-09-15T01:27:03.940Z,101305.02
2018-09-15T01:27:15.686Z,101306.70
2018-09-15T01:27:27.426Z,101308.39
2018-09-15T01:27:39.177Z,101313.61
2018-09-15T01:27:51.064Z,101306.17
2018-09-15T01:28:02.824Z,101306.70
2018-09-15T01:28:14.579Z,101305.40
2018-09-15T01:28:26.326Z,101309.46
2018-09-15T01:28:38.076Z,101306.85
2018-09-15T01:28:51.162Z,101309.84
2018-09-15T01:29:02.921Z,101309.70
2018-09-15T01:29:14.671Z,101308.00
2018-09-15T01:29:26.440Z,101304.09
2018-09-15T01:29:38.238Z,101304.47
2018-09-15T01:29:49.982Z,101301.33
2018-09-15T01:30:01.742Z,101302.78
2018-09-15T01:30:13.540Z,101304.63
2018-09-15T01:30:25.301Z,101307.63
2018-09-15T01:30:37.051Z,101304.63
2018-09-15T01:30:48.794Z,101304.63
2018-09-15T01:31:00.556Z,101306.31
2018-09-15T01:31:12.298Z,101303.32
2018-09-15T01:31:24.260Z,101302.40
2018-09-15T01:31:36.024Z,101301.87
2018-09-15T01:31:47.787Z,101301.48
2018-09-15T01:31:59.525Z,101297.56
2018-09-15T01:32:11.279Z,101302.02
2018-09-15T01:32:23.030Z,101296.79
2018-09-15T01:32:34.792Z,101298.87
2018-09-15T01:32:46.549Z,101300.56
2018-09-15T01:32:58.326Z,101305.40
2018-09-15T01:33:10.099Z,101299.79
2018-09-15T01:33:21.905Z,101300.17
2018-09-15T01:33:33.659Z,101302.40
2018-09-15T01:33:45.415Z,101304.47
2018-09-15T01:33:57.168Z,101299.25
2018-09-15T01:34:08.923Z,101299.25
2018-09-15T01:34:20.676Z,101296.26
2018-09-15T01:34:32.432Z,101300.17
2018-09-15T01:34:44.218Z,101303.32
2018-09-15T01:34:56.233Z,101304.23
2018-09-15T01:35:07.984Z,101303.70
2018-09-15T01:35:19.751Z,101303.32
2018-09-15T01:35:31.491Z,101300.17
2018-09-15T01:35:43.247Z,101296.26
2018-09-15T01:35:55.002Z,101300.56
2018-09-15T01:36:06.757Z,101302.78
2018-09-15T01:36:18.503Z,101300.17
2018-09-15T01:36:30.284Z,101298.33
2018-09-15T01:36:42.053Z,101299.25
2018-09-15T01:36:53.810Z,101301.33
2018-09-15T01:37:05.562Z,101304.47
2018-09-15T01:37:17.319Z,101302.64
2018-09-15T01:37:29.066Z,101300.94
2018-09-15T01:37:40.832Z,101300.02
2018-09-15T01:37:52.586Z,101302.64
2018-09-15T01:38:04.335Z,101301.33
2018-09-15T01:38:16.084Z,101297.80
2018-09-15T01:38:27.847Z,101300.02
2018-09-15T01:38:39.612Z,101303.02
2018-09-15T01:38:51.661Z,101304.33
2018-09-15T01:39:03.701Z,101303.94
2018-09-15T01:39:15.470Z,101303.41
2018-09-15T01:39:27.224Z,101299.88
2018-09-15T01:39:38.974Z,101299.48
2018-09-15T01:39:50.762Z,101302.64
2018-09-15T01:40:02.515Z,101297.27
2018-09-15T01:40:14.271Z,101300.94
2018-09-15T01:40:26.040Z,101297.95
2018-09-15T01:40:37.807Z,101300.94
2018-09-15T01:40:49.557Z,101303.55
2018-09-15T01:41:01.314Z,101299.25
2018-09-15T01:41:13.060Z,101304.86
2018-09-15T01:41:24.832Z,101301.33
2018-09-15T01:41:36.718Z,101293.50
2018-09-15T01:41:48.473Z,101299.64
2018-09-15T01:42:00.234Z,101299.25
2018-09-15T01:42:11.991Z,101297.03
2018-09-15T01:42:24.044Z,101297.56
2018-09-15T01:42:35.793Z,101297.41
2018-09-15T01:42:47.535Z,101298.33
2018-09-15T01:42:59.274Z,101299.64
2018-09-15T01:43:11.028Z,101295.58
2018-09-15T01:43:22.779Z,101295.19
2018-09-15T01:43:34.539Z,101297.80
2018-09-15T01:43:46.291Z,101298.33
2018-09-15T01:43:58.048Z,101298.72
2018-09-15T01:44:09.802Z,101297.95
2018-09-15T01:44:21.547Z,101301.87
2018-09-15T01:44:33.301Z,101295.72
2018-09-15T01:44:45.046Z,101295.72
2018-09-15T01:44:56.826Z,101293.88
2018-09-15T01:45:08.585Z,101295.58
2018-09-15T01:45:20.337Z,101297.80
2018-09-15T01:45:32.096Z,101292.96
2018-09-15T01:45:43.863Z,101298.33
2018-09-15T01:45:55.615Z,101297.80
2018-09-15T01:46:07.369Z,101299.64
2018-09-15T01:46:19.113Z,101297.41
2018-09-15T01:46:30.866Z,101300.94
2018-09-15T01:46:42.636Z,101295.19
2018-09-15T01:46:54.587Z,101293.50
2018-09-15T01:47:06.348Z,101292.96
2018-09-15T01:47:18.098Z,101296.64
2018-09-15T01:47:29.847Z,101295.19
2018-09-15T01:47:41.604Z,101295.72
2018-09-15T01:47:53.467Z,101299.64
2018-09-15T01:48:05.435Z,101293.88
2018-09-15T01:48:17.196Z,101297.41
2018-09-15T01:48:28.960Z,101296.49
2018-09-15T01:48:40.734Z,101292.73
2018-09-15T01:48:52.501Z,101295.19
2018-09-15T01:49:04.283Z,101295.72
2018-09-15T01:49:16.045Z,101298.33
2018-09-15T01:49:27.812Z,101299.64
2018-09-15T01:49:39.575Z,101297.80
2018-09-15T01:49:51.333Z,101297.95
2018-09-15T01:50:03.103Z,101303.70
2018-09-15T01:50:14.897Z,101296.64
2018-09-15T01:50:26.644Z,101296.49
2018-09-15T01:50:38.404Z,101295.34
2018-09-15T01:50:50.154Z,101301.87
2018-09-15T01:51:01.922Z,101299.64
2018-09-15T01:51:13.867Z,101301.87
2018-09-15T01:51:25.652Z,101301.87
2018-09-15T01:51:37.405Z,101295.19
2018-09-15T01:51:49.195Z,101304.86
2018-09-15T01:52:00.950Z,101305.78
2018-09-15T01:52:12.720Z,101298.33
2018-09-15T01:52:24.482Z,101304.86
2018-09-15T01:52:36.241Z,101297.03
2018-09-15T01:52:48.011Z,101303.55
2018-09-15T01:52:59.755Z,101305.02
2018-09-15T01:53:11.511Z,101303.94
2018-09-15T01:53:23.271Z,101304.86
2018-09-15T01:53:35.065Z,101303.17
2018-09-15T01:53:46.814Z,101303.17
2018-09-15T01:53:58.636Z,101304.09
2018-09-15T01:54:10.396Z,101306.31
2018-09-15T01:54:22.167Z,101303.70
2018-09-15T01:54:33.936Z,101300.56
2018-09-15T01:54:45.712Z,101303.17
2018-09-15T01:54:57.470Z,101300.17
2018-09-15T01:55:09.250Z,101297.56
2018-09-15T01:55:21.013Z,101303.70
2018-09-15T01:55:32.764Z,101300.70
2018-09-15T01:55:44.572Z,101297.95
2018-09-15T01:55:56.363Z,101304.09
2018-09-15T01:56:08.134Z,101305.55
2018-09-15T01:56:19.876Z,101301.09
2018-09-15T01:56:31.640Z,101302.02
2018-09-15T01:56:43.428Z,101301.09
2018-09-15T01:56:55.174Z,101300.70
2018-09-15T01:57:06.923Z,101301.63
2018-09-15T01:57:18.683Z,101299.41
2018-09-15T01:57:30.484Z,101302.78
2018-09-15T01:57:42.274Z,101297.56
2018-09-15T01:57:54.006Z,101303.70
2018-09-15T01:58:05.752Z,101303.85
2018-09-15T01:58:17.524Z,101301.09
2018-09-15T01:58:29.284Z,101301.87
2018-09-15T01:58:41.048Z,101308.00
2018-09-15T01:58:52.790Z,101301.09
2018-09-15T01:59:04.544Z,101304.09
2018-09-15T01:59:16.289Z,101301.87
2018-09-15T01:59:28.050Z,101302.25
2018-09-15T01:59:40.011Z,101303.17
2018-09-15T01:59:51.772Z,101298.48
2018-09-15T02:00:03.540Z,101303.32
2018-09-15T02:00:15.311Z,101305.40
2018-09-15T02:00:27.054Z,101306.70
2018-09-15T02:00:38.813Z,101304.47
2018-09-15T02:00:51.040Z,101308.00
2018-09-15T02:01:02.798Z,101302.25
2018-09-15T02:01:14.561Z,101305.78
2018-09-15T02:01:26.326Z,101302.78
2018-09-15T02:01:38.083Z,101308.39
2018-09-15T02:01:49.830Z,101307.86
2018-09-15T02:02:01.599Z,101307.47
2018-09-15T02:02:13.355Z,101308.78
2018-09-15T02:02:25.115Z,101305.25
2018-09-15T02:02:36.885Z,101303.02
2018-09-15T02:02:48.628Z,101304.33
2018-09-15T02:03:00.387Z,101305.78
2018-09-15T02:03:12.155Z,101308.78
2018-09-15T02:03:24.277Z,101303.94
2018-09-15T02:03:36.032Z,101310.62
2018-09-15T02:03:47.784Z,101303.02
2018-09-15T02:03:59.548Z,101307.09
2018-09-15T02:04:11.302Z,101306.94
2018-09-15T02:04:23.071Z,101303.94
2018-09-15T02:04:34.823Z,101306.55
2018-09-15T02:04:46.569Z,101307.86
2018-09-15T02:04:58.320Z,101302.78
2018-09-15T02:05:10.074Z,101304.09
2018-09-15T02:05:21.857Z,101310.47
2018-09-15T02:05:33.620Z,101304.86
2018-09-15T02:05:45.396Z,101309.70
2018-09-15T02:05:57.576Z,101306.31
2018-09-15T02:06:09.339Z,101307.63
2018-09-15T02:06:21.088Z,101307.47
2018-09-15T02:06:32.829Z,101308.39
2018-09-15T02:06:44.572Z,101309.31
2018-09-15T02:06:56.316Z,101309.70
2018-09-15T02:07:08.081Z,101308.39
2018-09-15T02:07:19.833Z,101314.53
2018-09-15T02:07:31.591Z,101307.47
2018-09-15T02:07:43.342Z,101311.39
2018-09-15T02:07:55.093Z,101308.39
2018-09-15T02:08:06.860Z,101307.86
2018-09-15T02:08:18.620Z,101308.39
2018-09-15T02:08:30.367Z,101308.78
2018-09-15T02:08:42.124Z,101305.63
2018-09-15T02:08:53.884Z,101314.38
2018-09-15T02:09:05.630Z,101313.47
2018-09-15T02:09:17.375Z,101311.77
2018-09-15T02:09:29.110Z,101311.77
2018-09-15T02:09:41.233Z,101315.16
2018-09-15T02:09:53.003Z,101316.61
2018-09-15T02:10:04.758Z,101312.70
2018-09-15T02:10:16.522Z,101312.70
2018-09-15T02:10:28.294Z,101312.70
2018-09-15T02:10:40.038Z,101314.00
2018-09-15T02:10:52.488Z,101313.23
2018-09-15T02:11:04.267Z,101312.70
2018-09-15T02:11:16.011Z,101311.00
2018-09-15T02:11:27.752Z,101309.31
2018-09-15T02:11:39.503Z,101311.00
2018-09-15T02:11:51.261Z,101313.23
2018-09-15T02:12:03.039Z,101311.16
2018-09-15T02:12:14.800Z,101305.78
2018-09-15T02:12:26.557Z,101306.17
2018-09-15T02:12:38.318Z,101310.08
2018-09-15T02:12:50.063Z,101307.86
2018-09-15T02:13:01.854Z,101311.00
2018-09-15T02:13:13.599Z,101310.62
2018-09-15T02:13:25.365Z,101312.46
2018-09-15T02:13:37.132Z,101305.02
2018-09-15T02:13:49.228Z,101307.09
2018-09-15T02:14:01.000Z,101304.47
2018-09-15T02:14:12.742Z,101309.70
2018-09-15T02:14:24.505Z,101305.02
2018-09-15T02:14:36.277Z,101306.31
2018-09-15T02:14:48.027Z,101307.63
2018-09-15T02:14:59.789Z,101305.25
2018-09-15T02:15:11.546Z,101305.63